Superior, MT (59872)

12:27 PM MST on February 14, 2016 (GMT -0700)
Valley View | | Change Station
CLOSE
Current Station
Personal Weather Station
Location: Plains, MT
Elevation: 2644 ft
Nearby Weather Stations

Elev 2644 ft 47.44 °N, 114.90 °W | Updated 1 minute ago

Overcast
Overcast
47.7 °F
Feels Like 48 °F
N
1.7
Wind Variable Wind from SSW

Today
High -- | Low -- °F
--% Chance of Precip.
Yesterday
High -- | Low -- °F
Precip. -- in
Pressure 30.12 in
Visibility 10.0 miles
Clouds Mostly Cloudy 7000 ft
Windchill 48 °F
Dew Point 38 °F
Humidity 68%
Rainfall 0.00 in
Snow Depth Not available.
7:46 AM 6:01 PM
Waxing Crescent, 44% visible
METAR KMSO 141853Z 31012KT 10SM BKN070 07/M01 A3007 RMK AO2 SLP198 T00721006 $
Pressure 30.12 in
Visibility 10.0 miles
Clouds Mostly Cloudy 7000 ft
Windchill 48 °F
Dew Point 38 °F
Humidity 68%
Rainfall 0.00 in
Snow Depth Not available.
7:46 AM 6:01 PM
Waxing Crescent, 44% visible
METAR KMSO 141853Z 31012KT 10SM BKN070 07/M01 A3007 RMK AO2 SLP198 T00721006 $

10-Day Weather Forecast

Almanac

Astronomy

Feb. 14, 2016 Rise Set
Actual Time
Civil Twilight
Nautical Twilight
Astronomical Twilight
Moon
Length of Visible Light
Length of Day
Tomorrow will be .
, % of the Moon is Illuminated

Today's Extremes

State Highs State Lows

Community

WunderPhotos

Upload Photos

1,892,875 photos uploaded!

WunderBlog® & News

Nearby

Air Quality

  Air Quality AQ Index Pollutant
Not available.

Snow Depth

Station Depth Elevation

Earthquake Activity

City Distance Mag. Time & Date
Minimum magnitude displayed is 2.5.

Coastal Water Temperatures

Place Temperature

Stations

Nearby Weather Stations

Station Location Temp. Windchill Dew Point Humidity Wind Precip. Elev Updated Type
                   

Watches & Warnings

There are currently no watches in effect.